createdAt,value
2019-01-15T00:01:45.601Z,2.04
2019-01-15T00:06:52.780Z,2.67
2019-01-15T00:12:07.644Z,2.55
2019-01-15T00:17:08.276Z,2.49
2019-01-15T00:22:28.282Z,2.79
2019-01-15T00:27:16.591Z,2.67
2019-01-15T00:32:25.129Z,3.31
2019-01-15T00:37:32.339Z,4.01
2019-01-15T00:42:53.446Z,3.36
2019-01-15T00:47:40.782Z,3.55
2019-01-15T00:52:48.962Z,3.33
2019-01-15T00:57:56.419Z,2.58
2019-01-15T01:03:03.530Z,2.24
2019-01-15T01:08:12.264Z,1.83
2019-01-15T01:13:19.535Z,2.31
2019-01-15T01:18:27.330Z,1.56
2019-01-15T01:23:34.544Z,1.69
2019-01-15T01:28:42.194Z,1.38
2019-01-15T01:33:49.445Z,1.39
2019-01-15T01:38:56.814Z,1.61
2019-01-15T01:44:03.912Z,1.25
2019-01-15T01:49:11.313Z,1.27
2019-01-15T01:54:18.320Z,1.55
2019-01-15T01:59:27.329Z,1.62
2019-01-15T02:04:37.615Z,1.28
2019-01-15T02:09:36.039Z,1.58
2019-01-15T02:14:43.267Z,1.54
2019-01-15T02:19:50.706Z,1.50
2019-01-15T02:24:57.956Z,1.29
2019-01-15T02:30:05.366Z,1.53
2019-01-15T02:35:13.559Z,1.81
2019-01-15T02:40:20.720Z,1.36
2019-01-15T02:45:28.757Z,1.48
2019-01-15T02:50:37.050Z,2.13
2019-01-15T02:55:44.323Z,1.35
2019-01-15T03:01:04.838Z,1.65
2019-01-15T03:05:52.080Z,1.68
2019-01-15T03:10:59.434Z,1.59
2019-01-15T03:16:06.560Z,1.46
2019-01-15T03:21:14.723Z,1.49
2019-01-15T03:26:22.962Z,1.42
2019-01-15T03:31:31.145Z,1.49
2019-01-15T03:36:38.362Z,1.15
2019-01-15T03:41:45.796Z,1.22
2019-01-15T03:46:53.021Z,1.15
2019-01-15T03:52:00.371Z,0.92
2019-01-15T03:57:07.592Z,1.55
2019-01-15T04:02:15.064Z,0.78
2019-01-15T04:07:23.258Z,1.03
2019-01-15T04:12:30.627Z,0.75
2019-01-15T04:17:37.875Z,0.59
2019-01-15T04:22:45.386Z,0.64
2019-01-15T04:27:52.682Z,0.81
2019-01-15T04:33:00.056Z,0.82
2019-01-15T04:38:07.130Z,0.73
2019-01-15T04:43:19.900Z,0.71
2019-01-15T04:48:22.821Z,0.51
2019-01-15T04:53:30.797Z,0.75
2019-01-15T04:58:38.979Z,0.87
2019-01-15T05:03:46.957Z,0.56
2019-01-15T05:08:54.209Z,0.78
2019-01-15T05:14:01.619Z,0.85
2019-01-15T05:19:08.726Z,0.75
2019-01-15T05:24:17.145Z,0.72
2019-01-15T05:29:24.374Z,0.81
2019-01-15T05:34:31.588Z,0.69
2019-01-15T05:39:39.790Z,1.19
2019-01-15T05:44:46.953Z,1.48
2019-01-15T05:49:55.160Z,0.92
2019-01-15T05:55:02.414Z,0.84
2019-01-15T06:00:10.607Z,0.80
2019-01-15T06:05:17.811Z,0.82
2019-01-15T06:10:26.022Z,0.85
2019-01-15T06:15:33.481Z,0.91
2019-01-15T06:20:40.581Z,0.74
2019-01-15T06:25:48.972Z,0.62
2019-01-15T06:30:56.114Z,0.82
2019-01-15T06:36:04.174Z,0.70
2019-01-15T06:41:12.399Z,0.50
2019-01-15T06:46:20.428Z,0.93
2019-01-15T06:51:28.457Z,0.66
2019-01-15T06:56:38.793Z,0.81
2019-01-15T07:01:46.001Z,0.72
2019-01-15T07:06:54.173Z,0.77
2019-01-15T07:12:01.259Z,0.72
2019-01-15T07:17:23.372Z,0.88
2019-01-15T07:22:10.623Z,0.78
2019-01-15T07:27:33.409Z,0.86
2019-01-15T07:32:21.598Z,1.10
2019-01-15T07:37:30.755Z,0.95
2019-01-15T07:42:37.820Z,0.87
2019-01-15T07:47:58.959Z,1.09
2019-01-15T07:52:46.256Z,1.25
2019-01-15T07:58:06.775Z,1.04
2019-01-15T08:02:53.903Z,1.04
2019-01-15T08:08:02.150Z,1.31
2019-01-15T08:13:09.369Z,1.86
2019-01-15T08:18:17.822Z,1.58
2019-01-15T08:23:24.914Z,1.92
2019-01-15T08:28:33.199Z,2.22
2019-01-15T08:33:40.463Z,2.67
2019-01-15T08:38:47.870Z,2.44
2019-01-15T08:44:07.883Z,2.11
2019-01-15T08:48:56.311Z,2.35
2019-01-15T08:54:17.201Z,2.42
2019-01-15T08:59:05.500Z,3.53
2019-01-15T09:04:26.489Z,2.72
2019-01-15T09:09:14.858Z,2.92
2019-01-15T09:14:26.753Z,2.71
2019-01-15T09:19:30.338Z,2.08
2019-01-15T09:29:55.344Z,1.96
2019-01-15T09:39:46.435Z,1.71
2019-01-15T09:44:53.656Z,1.67
2019-01-15T09:50:00.803Z,1.46
2019-01-15T09:55:09.006Z,1.27
2019-01-15T10:05:20.301Z,1.44
2019-01-15T10:10:27.636Z,1.19
2019-01-15T10:15:34.939Z,1.04
2019-01-15T10:20:55.096Z,0.89
2019-01-15T10:30:47.126Z,1.10
2019-01-15T10:36:07.307Z,1.15
2019-01-15T10:41:08.742Z,1.36
2019-01-15T10:45:57.034Z,1.10
2019-01-15T10:56:08.199Z,1.16
2019-01-15T11:06:32.463Z,1.35
2019-01-15T11:11:20.022Z,1.09
2019-01-15T11:16:40.189Z,1.12
2019-01-15T11:21:27.827Z,1.13
2019-01-15T11:26:47.953Z,1.16
2019-01-15T11:31:35.256Z,1.12
2019-01-15T11:36:43.465Z,1.23
2019-01-15T11:51:56.959Z,1.11
2019-01-15T11:57:04.274Z,1.26
2019-01-15T12:07:29.032Z,1.51
2019-01-15T12:12:17.327Z,2.03
2019-01-15T12:17:24.662Z,1.84
2019-01-15T12:22:45.027Z,2.05
2019-01-15T12:27:32.363Z,1.99
2019-01-15T12:32:39.879Z,1.60
2019-01-15T12:38:00.155Z,1.45
2019-01-15T12:42:48.530Z,1.73
2019-01-15T12:48:09.821Z,1.38
2019-01-15T12:52:57.143Z,1.29
2019-01-15T12:58:05.428Z,1.46
2019-01-15T13:03:25.787Z,1.15
2019-01-15T13:08:14.045Z,1.22
2019-01-15T13:13:34.296Z,1.24
2019-01-15T13:18:21.380Z,1.26
2019-01-15T13:23:42.729Z,1.38
2019-01-15T13:28:42.771Z,1.06
2019-01-15T13:33:36.776Z,1.34
2019-01-15T13:38:38.710Z,1.55
2019-01-15T13:43:47.079Z,1.21
2019-01-15T13:48:54.178Z,0.94
2019-01-15T13:54:02.467Z,0.90
2019-01-15T13:59:10.659Z,0.87
2019-01-15T14:04:18.023Z,0.69
2019-01-15T14:09:25.092Z,0.97
2019-01-15T14:14:33.580Z,1.59
2019-01-15T14:19:41.693Z,1.18
2019-01-15T14:24:49.105Z,1.27
2019-01-15T14:29:57.339Z,1.02
2019-01-15T14:35:17.574Z,1.15
2019-01-15T14:40:04.805Z,1.05
2019-01-15T14:45:12.047Z,0.83
2019-01-15T14:50:20.926Z,0.66
2019-01-15T14:55:29.181Z,0.80
2019-01-15T15:00:36.385Z,0.86
2019-01-15T15:05:43.720Z,0.83
2019-01-15T15:11:03.866Z,0.75
2019-01-15T15:15:51.133Z,0.91
2019-01-15T15:20:59.300Z,0.69
2019-01-15T15:26:06.619Z,1.18
2019-01-15T15:31:13.940Z,1.32
2019-01-15T15:37:27.124Z,0.85
2019-01-15T15:42:47.101Z,0.83
2019-01-15T15:47:35.463Z,1.75
2019-01-15T15:52:43.562Z,1.77
2019-01-15T15:57:51.901Z,1.59
2019-01-15T16:02:59.047Z,1.98
2019-01-15T16:08:08.197Z,1.94
2019-01-15T16:13:28.270Z,1.88
2019-01-15T16:18:15.640Z,2.40
2019-01-15T16:23:23.763Z,1.91
2019-01-15T16:28:31.221Z,1.89
2019-01-15T16:33:38.509Z,1.59
2019-01-15T16:44:00.790Z,1.35
2019-01-15T16:49:00.921Z,0.94
2019-01-15T16:53:49.168Z,1.08
2019-01-15T17:09:17.252Z,0.98
2019-01-15T17:19:05.492Z,1.19
2019-01-15T17:29:27.713Z,0.76
2019-01-15T17:34:14.944Z,0.74
2019-01-15T17:44:39.028Z,1.11
2019-01-15T17:49:26.556Z,1.36
2019-01-15T17:54:46.683Z,1.35
2019-01-15T17:59:34.328Z,1.00
2019-01-15T18:04:54.482Z,1.36
2019-01-15T18:09:54.692Z,1.42
2019-01-15T18:14:41.958Z,1.65
2019-01-15T18:20:02.078Z,1.12
2019-01-15T18:24:51.364Z,1.43
2019-01-15T18:29:58.756Z,1.38
2019-01-15T18:35:05.976Z,1.23
2019-01-15T18:40:14.024Z,1.65
2019-01-15T18:45:22.268Z,2.39
2019-01-15T18:50:42.539Z,3.17
2019-01-15T18:55:31.750Z,1.36
2019-01-15T19:00:39.062Z,1.37
2019-01-15T19:05:46.147Z,1.56
2019-01-15T19:11:07.301Z,1.84
2019-01-15T19:16:07.421Z,1.63
2019-01-15T19:20:54.917Z,1.68
2019-01-15T19:26:01.963Z,1.25
2019-01-15T19:31:10.421Z,1.18
2019-01-15T19:36:17.494Z,1.31
2019-01-15T19:41:25.782Z,1.62
2019-01-15T19:46:33.964Z,1.51
2019-01-15T19:51:41.220Z,1.78
2019-01-15T19:56:49.294Z,1.99
2019-01-15T20:01:57.590Z,1.71
2019-01-15T20:07:04.811Z,1.81
2019-01-15T20:12:12.013Z,2.02
2019-01-15T20:17:20.252Z,1.09
2019-01-15T20:22:27.548Z,1.16
2019-01-15T20:27:35.855Z,0.91
2019-01-15T20:32:43.206Z,0.70
2019-01-15T20:37:50.384Z,0.80
2019-01-15T20:42:58.938Z,0.78
2019-01-15T20:48:06.201Z,0.64
2019-01-15T20:53:26.498Z,0.76
2019-01-15T20:59:23.465Z,0.90
2019-01-15T21:04:21.600Z,0.99
2019-01-15T21:09:32.696Z,0.71
2019-01-15T21:14:30.995Z,0.75
2019-01-15T21:19:38.922Z,0.74
2019-01-15T21:24:47.156Z,1.17
2019-01-15T21:29:54.249Z,1.06
2019-01-15T21:35:15.573Z,0.83
2019-01-15T21:40:02.827Z,0.64
2019-01-15T21:45:10.139Z,0.64
2019-01-15T21:50:31.342Z,1.13
2019-01-15T21:55:20.115Z,0.77
2019-01-15T22:00:27.342Z,0.59
2019-01-15T22:05:35.601Z,0.52
2019-01-15T22:10:42.007Z,0.58
2019-01-15T22:15:50.397Z,0.72
2019-01-15T22:20:58.623Z,0.50
2019-01-15T22:26:18.825Z,0.67
2019-01-15T22:31:06.067Z,0.54
2019-01-15T22:36:13.457Z,0.60
2019-01-15T22:41:20.743Z,0.70
2019-01-15T22:46:27.986Z,0.58
2019-01-15T22:51:36.081Z,0.61
2019-01-15T22:56:44.423Z,0.62
2019-01-15T23:01:52.654Z,0.71
2019-01-15T23:07:00.109Z,0.55
2019-01-15T23:12:07.314Z,0.78
2019-01-15T23:17:27.388Z,0.87
2019-01-15T23:23:34.105Z,0.82
2019-01-15T23:28:22.516Z,0.90
2019-01-15T23:33:29.756Z,0.55
2019-01-15T23:38:37.884Z,0.62
2019-01-15T23:43:45.061Z,0.72
2019-01-15T23:48:52.449Z,0.75
2019-01-15T23:53:59.664Z,0.72
2019-01-15T23:59:07.008Z,0.77
